Stations météo

Publicité
Klippeneck, Allemagne (10818): Température de l'air & dewpoint: 20.04.2018 17:00:00 - 26.04.2018 17:00:00 (CEST)Klippeneck, Allemagne (10818): Température de l'air 5cm & Température de l'air -5cm: 20.04.2018 17:00:00 - 26.04.2018 17:00:00 (CEST)Klippeneck, Allemagne (10818): Température de l'air -20cm & Température de l'air -100cm: 20.04.2018 17:00:00 - 26.04.2018 17:00:00 (CEST)Klippeneck, Allemagne (10818): Vitesse du vent & gusts: 20.04.2018 17:00:00 - 26.04.2018 17:00:00 (CEST)Klippeneck, Allemagne (10818): Direction du vent: 20.04.2018 17:00:00 - 26.04.2018 17:00:00 (CEST)Klippeneck, Allemagne (10818): visibility: 20.04.2018 17:00:00 - 26.04.2018 17:00:00 (CEST)Klippeneck, Allemagne (10818): Ensoleillement: 20.04.2018 17:00:00 - 26.04.2018 17:00:00 (CEST)Klippeneck, Allemagne (10818): Quantités de précipitations: 20.04.2018 17:00:00 - 26.04.2018 17:00:00 (CEST)
Date & Time tt [°C] td [°C] tt 5cm [°C] tt -5cm [°C] tt -20cm [°C] tt -100cm [°C] ff [km/h] ff [knt] fx [km/h] fx [knt] dd vv [km] sd [min] rr [mm]
26.04.2018 17:00:00 9,8 1,1 12,4 16,9 13,0 9,2 17 9 44 24 W 53 30 0,0
26.04.2018 16:00:00 9,1 -0,3 10,9 17,0 12,7 9,2 27 14 42 23 W 64 21 0,0
26.04.2018 15:00:00 9,3 -0,8 11,3 17,5 12,5 9,2 23 13 53 29 W 45 45 0,0
26.04.2018 14:00:00 10,4 1,3 13,3 14,8 12,4 9,2 27 15 48 26 W 41 22 0,0
26.04.2018 13:00:00 8,5 0,9 11,0 13,7 12,4 9,2 29 15 51 28 W 39 26 0,0
26.04.2018 12:00:00 7,5 1,5 9,0 11,3 12,5 9,2 31 17 49 26 WNW 54 1 0,0
26.04.2018 11:00:00 6,3 2,9 6,7 10,8 12,5 9,2 22 12 49 26 WNW 65 0 0,0
26.04.2018 10:00:00 6,9 3,1 7,1 11,2 12,7 9,1 21 11 41 22 W 51 12 0,0
26.04.2018 09:00:00 6,5 3,2 8,0 10,2 12,8 9,1 17 9 35 19 W 44 49 0,0
26.04.2018 08:00:00 4,9 2,5 5,5 9,4 13,0 9,1 18 10 32 17 WNW 37 41 0,0
26.04.2018 07:00:00 4,3 3,8 4,1 9,7 13,2 9,1 19 10 39 21 WNW 14 0 0,0
26.04.2018 06:00:00 4,8 4,5 4,8 10,2 13,4 9,1 26 14 44 24 WNW 7 0 0,2
26.04.2018 05:00:00 5,2 4,7 5,3 10,6 13,6 9,1 16 9 24 13 WNW 10 0 0,6
26.04.2018 04:00:00 5,6 5,0 5,6 11,1 13,8 9,1 15 8 33 18 WNW 6 0 0,6
26.04.2018 03:00:00 7,8 6,9 7,6 11,4 14,0 9,1 17 9 29 16 WNW 9 0 0,0
26.04.2018 02:00:00 8,3 5,9 8,0 11,4 14,2 9,1 14 8 27 14 WNW 70 0 0,0
26.04.2018 01:00:00 8,9 5,9 8,4 11,7 14,4 9,1 21 11 37 20 W 70 0 0,0
26.04.2018 00:00:00 9,6 6,6 8,7 12,3 14,6 9,1 28 15 40 22 WNW 70 0 0,0
25.04.2018 23:00:00 10,1 7,2 8,9 12,9 14,7 9,1 23 12 34 18 WNW 53 0 0,0
25.04.2018 22:00:00 11,2 6,8 9,8 13,7 14,8 9,1 23 12 35 19 WNW 63 0 0,0
25.04.2018 21:00:00 11,8 6,7 10,4 14,8 14,9 9,1 21 11 29 15 WNW 53 0 0,0
25.04.2018 20:00:00 12,8 6,8 11,9 16,3 14,8 9,1 20 11 38 21 W 55 7 0,0
25.04.2018 19:00:00 14,7 6,8 14,6 17,6 14,7 9,0 25 14 56 30 W 45 36 0,0
25.04.2018 18:00:00 16,3 7,1 17,6 18,1 14,5 9,0 30 16 61 33 W 28 11 0,0
25.04.2018 17:00:00 16,2 6,2 18,1 19,4 14,2 9,0 39 21 64 35 W 21 24 0,0
25.04.2018 16:00:00 17,0 7,2 18,6 20,8 13,8 9,0 33 18 61 33 W 21 55 0,0
25.04.2018 15:00:00 16,7 5,8 19,6 19,6 13,5 9,0 40 22 70 38 W 24 42 0,0
25.04.2018 14:00:00 16,2 6,1 19,0 19,1 13,3 9,0 34 18 75 41 W 24 56 0,0
25.04.2018 13:00:00 16,7 4,4 20,2 16,7 13,1 9,0 28 15 46 25 W 34 29 0,0
25.04.2018 12:00:00 15,0 5,6 16,8 16,7 12,9 9,0 24 13 44 24 W 38 47 0,0
25.04.2018 11:00:00 15,2 7,2 17,5 14,5 12,9 9,0 23 13 47 26 WSW 23 31 0,0
25.04.2018 10:00:00 14,2 8,3 16,0 13,2 12,9 9,0 22 12 37 20 W 32 49 0,0
25.04.2018 09:00:00 13,2 7,6 14,9 11,4 13,1 9,0 21 11 40 22 SW 29 60 0,0
25.04.2018 08:00:00 12,5 7,3 13,2 10,5 13,2 9,0 18 10 36 19 SW 35 55 0,0
25.04.2018 07:00:00 11,7 6,7 10,6 10,2 13,4 9,0 22 12 36 19 WSW 46 2 0,0
25.04.2018 06:00:00 10,8 6,1 9,3 10,3 13,7 9,0 19 10 36 19 SW 44 0 0,0
25.04.2018 05:00:00 10,7 6,2 9,4 10,6 13,9 9,0 23 12 36 19 SW 42 0 0,0
25.04.2018 04:00:00 11,0 6,3 9,5 10,9 14,1 8,9 20 11 30 16 SW 46 0 0,0
25.04.2018 03:00:00 11,2 6,9 9,4 11,4 14,3 8,9 16 9 28 15 WSW 43 0 0,0
25.04.2018 02:00:00 11,7 6,7 10,2 11,8 14,5 8,9 21 11 29 16 WSW 46 0 0,0
25.04.2018 01:00:00 11,8 6,9 10,0 12,2 14,7 8,9 15 8 21 11 SW 48 0 0,0
25.04.2018 00:00:00 12,0 6,8 10,4 12,8 14,9 8,9 14 8 25 13 WSW 49 0 0,0
24.04.2018 23:00:00 12,3 6,5 10,6 13,5 15,1 8,9 14 8 25 14 WSW 54 0 0,0
24.04.2018 22:00:00 13,4 5,8 11,8 14,4 15,1 8,9 16 8 26 14 W 58 0 0,0
24.04.2018 21:00:00 13,4 5,6 11,6 15,7 15,1 8,9 10 6 19 11 W 64 0 0,0
24.04.2018 20:00:00 15,0 6,2 13,4 17,5 15,0 8,9 10 5 21 11 WNW 70 39 0,0
24.04.2018 19:00:00 17,3 5,9 17,7 19,7 14,7 8,8 11 6 25 13 WNW 70 60 0,0
24.04.2018 18:00:00 17,8 6,6 19,7 20,3 14,4 8,8 14 8 25 13 W 44 38 0,0
24.04.2018 17:00:00 18,3 6,3 20,8 21,2 14,0 8,8 10 5 26 14 W 58 47 0,0
24.04.2018 16:00:00 18,4 6,4 22,5 21,3 13,6 8,8 16 8 26 14 W 59 54 0,0
24.04.2018 15:00:00 17,8 6,5 21,2 19,2 13,3 8,8 16 9 30 16 W 46 30 0,0
24.04.2018 14:00:00 16,4 7,2 20,5 18,0 13,1 8,8 11 6 23 13 W 49 34 0,0
24.04.2018 13:00:00 14,8 7,4 17,1 16,6 12,9 8,8 16 9 28 15 WSW 46 31 0,0
24.04.2018 12:00:00 13,7 7,6 15,8 15,4 12,8 8,8 11 6 29 16 W 45 36 0,0
24.04.2018 11:00:00 12,1 7,4 13,3 14,1 12,7 8,8 19 10 31 17 WSW 34 45 0,0
24.04.2018 10:00:00 11,5 9,0 13,3 12,5 12,8 8,7 12 7 21 11 SSW 22 37 0,0
24.04.2018 09:00:00 10,8 7,9 12,3 11,1 13,0 8,7 12 7 19 11 SW 28 52 0,0
24.04.2018 08:00:00 9,8 8,0 9,8 9,8 13,2 8,7 12 7 17 9 SW 20 57 0,0
24.04.2018 07:00:00 9,1 7,9 7,9 9,6 13,4 8,7 12 7 20 11 W 20 0 0,0
24.04.2018 06:00:00 9,0 7,8 7,7 10,0 13,6 8,7 12 7 19 11 SW 24 0 0,0
24.04.2018 05:00:00 9,2 8,2 8,2 10,1 13,8 8,7 12 7 20 11 SW 23 0 0,1
24.04.2018 04:00:00 8,9 7,9 7,7 10,4 14,0 8,7 11 6 19 10 SW 20 0 0,0
24.04.2018 03:00:00 9,0 7,9 7,6 10,9 14,2 8,7 11 6 24 13 SW 25 0 0,0
24.04.2018 02:00:00 9,3 8,1 8,2 11,6 14,4 8,7 14 7 25 14 WSW 25 0 0,0
24.04.2018 01:00:00 9,1 8,0 8,0 11,9 14,5 8,6 10 6 18 10 SW 32 0 0,0
24.04.2018 00:00:00 9,6 8,1 9,1 12,1 14,7 8,6 10 6 18 10 SW 55 0 0,0
23.04.2018 23:00:00 9,5 8,3 9,0 12,4 14,9 8,6 10 6 21 11 SW 34 0 0,0
23.04.2018 22:00:00 9,7 8,3 8,8 13,0 15,1 8,6 14 8 22 12 WSW 30 0 0,0
23.04.2018 21:00:00 10,7 8,0 9,5 13,5 15,2 8,6 8 5 29 15 W 66 0 0,0
23.04.2018 20:00:00 10,2 8,2 9,4 14,2 15,3 8,6 18 10 29 16 WNW 44 0 0,9
23.04.2018 19:00:00 10,4 9,4 10,1 15,3 15,4 8,6 17 9 33 18 W 6 0 0,6
23.04.2018 18:00:00 11,8 9,7 11,8 16,1 15,4 8,5 23 12 36 20 WNW 43 0 0,0
23.04.2018 17:00:00 12,5 10,5 12,8 16,5 15,4 8,5 19 10 28 15 WNW 33 0 0,1
23.04.2018 16:00:00 11,7 10,4 12,0 16,2 15,4 8,5 21 11 30 16 WNW 12 0 1,3
23.04.2018 15:00:00 11,8 10,1 12,0 16,8 15,2 8,5 14 7 21 12 NW 21 0 0,7
23.04.2018 14:00:00 11,1 10,0 10,7 18,0 15,0 8,5 18 10 54 29 WNW 6 1 0,6
23.04.2018 13:00:00 15,5 8,0 16,4 19,9 14,8 8,5 18 10 37 20 NW 49 37 0,0
23.04.2018 12:00:00 16,3 8,6 18,6 18,5 14,7 8,4 13 7 29 15 NW 36 30 0,0
23.04.2018 11:00:00 16,6 7,9 19,8 16,8 14,7 8,4 16 9 35 19 WNW 34 54 0,0
23.04.2018 10:00:00 16,7 7,0 19,6 15,4 14,8 8,4 14 8 25 14 W 39 41 0,0
23.04.2018 09:00:00 15,3 5,7 16,3 13,9 14,9 8,4 13 7 23 12 WSW 65 11 0,0
23.04.2018 08:00:00 14,7 4,8 14,3 13,3 15,1 8,4 15 8 24 13 SW 65 0 0,0
23.04.2018 07:00:00 14,8 4,0 13,6 13,4 15,3 8,4 16 9 30 16 SW 69 0 0,0
23.04.2018 06:00:00 14,9 2,9 13,6 13,7 15,4 8,4 17 9 31 17 SW 70 0 0,0
23.04.2018 05:00:00 16,7 2,4 15,5 14,1 15,6 8,3 17 9 30 16 WSW 70 0 0,0
23.04.2018 04:00:00 16,1 1,4 14,7 14,3 15,8 8,3 15 8 24 13 WSW 70 0 0,0
23.04.2018 03:00:00 16,0 2,7 14,9 14,6 16,0 8,3 14 7 19 11 WSW 70 0 0,0
23.04.2018 02:00:00 16,1 4,1 14,9 14,8 16,2 8,3 14 7 19 10 W 70 0 0,0
23.04.2018 01:00:00 16,4 4,4 14,6 15,0 16,4 8,3 12 7 20 11 W 65 0 0,0
23.04.2018 00:00:00 16,6 4,9 14,6 15,5 16,5 8,3 13 7 22 12 W 67 0 0,0
22.04.2018 23:00:00 16,9 5,6 14,1 16,2 16,7 8,3 12 7 19 10 W 68 0 0,0
22.04.2018 22:00:00 18,0 4,4 15,8 17,0 16,8 8,2 13 7 24 13 WSW 70 0 0,0
22.04.2018 21:00:00 18,4 4,2 15,9 18,0 16,8 8,2 10 5 25 13 WSW 69 0 0,0
22.04.2018 20:00:00 19,3 3,9 17,5 19,6 16,7 8,2 14 8 26 14 WSW 70 18 0,0
22.04.2018 19:00:00 22,1 2,4 22,2 21,5 16,5 8,2 16 9 28 15 WSW 70 54 0,0
22.04.2018 18:00:00 22,6 3,9 24,6 22,5 16,3 8,2 10 5 18 10 W 60 60 0,0
22.04.2018 17:00:00 23,0 5,0 26,7 22,1 16,0 8,2 11 6 21 11 NW 16 45 0,0
22.04.2018 16:00:00 20,8 4,4 21,7 20,8 15,7 8,1 8 4 23 12 NW 70 0 0,1
22.04.2018 15:00:00 17,5 8,9 15,9 22,4 15,3 8,1 25 13 35 19 WNW 10 14 0,1
22.04.2018 14:00:00 22,8 7,0 27,2 23,6 14,9 8,1 15 8 27 15 SW 7 60 0,0
22.04.2018 13:00:00 22,3 8,0 27,7 21,9 14,6 8,1 10 5 19 11 W 6 60 0,0
22.04.2018 12:00:00 21,1 8,0 26,0 19,7 14,5 8,1 12 6 21 12 W 11 60 0,0
22.04.2018 11:00:00 20,0 6,6 23,9 17,3 14,4 8,1 11 6 20 11 WSW 31 60 0,0
22.04.2018 10:00:00 18,6 6,2 21,6 15,2 14,5 8,1 10 5 22 12 SSW 25 60 0,0
22.04.2018 09:00:00 17,3 5,9 18,9 13,6 14,7 8,1 14 7 19 10 S 30 60 0,0
22.04.2018 08:00:00 16,0 6,2 15,9 12,7 14,9 8,0 11 6 17 9 SSE 33 60 0,0
22.04.2018 07:00:00 14,5 5,1 11,7 12,7 15,1 8,0 11 6 15 8 SSE 48 0 0,0
22.04.2018 06:00:00 14,7 5,2 11,7 13,1 15,3 8,0 13 7 17 9 SSE 40 0 0,0
22.04.2018 05:00:00 14,3 5,3 12,0 13,6 15,5 8,0 15 8 19 10 SE 36 0 0,0
22.04.2018 04:00:00 14,2 5,8 12,4 14,1 15,7 8,0 17 9 34 18 ESE 31 0 0,0
22.04.2018 03:00:00 15,5 6,2 14,0 14,5 15,9 8,0 27 14 35 19 E 34 0 0,0
22.04.2018 02:00:00 15,5 6,1 14,1 14,9 16,1 8,0 26 14 33 18 E 39 0 0,0
22.04.2018 01:00:00 16,0 6,0 14,5 15,4 16,3 8,0 24 13 30 16 E 41 0 0,0
22.04.2018 00:00:00 15,8 6,3 14,3 16,0 16,5 7,9 18 10 21 12 E 44 0 0,0
21.04.2018 23:00:00 16,4 6,6 14,9 16,7 16,7 7,9 18 10 26 14 E 42 0 0,0
21.04.2018 22:00:00 16,5 7,0 14,9 17,6 16,7 7,9 17 9 21 11 E 42 0 0,0
21.04.2018 21:00:00 18,0 6,6 15,9 18,9 16,7 7,9 14 7 18 10 ENE 46 0 0,0
21.04.2018 20:00:00 18,2 7,2 16,7 20,6 16,5 7,9 6 3 13 7 NE 48 9 0,0
21.04.2018 19:00:00 21,5 4,6 21,0 22,9 16,2 7,8 10 5 20 11 NW 61 55 0,0
21.04.2018 18:00:00 23,6 4,0 26,1 24,2 15,8 7,8 9 5 22 12 WNW 26 60 0,0
21.04.2018 17:00:00 23,1 3,8 26,9 24,8 15,3 7,8 13 7 23 13 WNW 22 60 0,0
21.04.2018 16:00:00 23,7 4,1 26,3 24,8 14,8 7,8 11 6 24 13 WNW 28 60 0,0
21.04.2018 15:00:00 22,8 4,2 28,0 24,2 14,4 7,8 8 5 26 14 W 50 60 0,0
21.04.2018 14:00:00 22,8 6,0 28,2 22,9 13,9 7,8 9 5 24 13 NW 23 60 0,0
21.04.2018 13:00:00 22,1 7,2 27,1 21,1 13,6 7,8 11 6 20 11 W 24 60 0,0
21.04.2018 12:00:00 20,9 7,4 25,4 18,8 13,4 7,8 8 4 15 8 WNW 25 60 0,0
21.04.2018 11:00:00 20,0 6,7 25,0 16,0 13,4 7,7 8 4 11 6 NW 35 60 0,0
21.04.2018 10:00:00 18,3 5,8 21,7 14,2 13,5 7,7 8 4 12 6 N 26 60 0,0
21.04.2018 09:00:00 17,4 4,6 20,6 12,5 13,7 7,7 3 2 9 5 N 61 60 0,0
21.04.2018 08:00:00 16,6 6,2 16,2 11,4 13,9 7,7 8 4 15 8 ENE 31 57 0,0
21.04.2018 07:00:00 13,5 4,8 10,7 11,3 14,1 7,7 6 4 14 7 NE 46 0 0,0
21.04.2018 06:00:00 14,8 4,8 11,5 11,7 14,3 7,7 12 6 14 8 ENE 46 0 0,0
21.04.2018 05:00:00 15,1 6,1 11,1 11,9 14,6 7,7 11 6 13 7 ENE 30 0 0,0
21.04.2018 04:00:00 13,0 6,0 9,7 12,4 14,8 7,7 6 3 8 4 NNE 28 0 0,0
21.04.2018 03:00:00 13,8 6,2 9,6 13,0 15,0 7,7 0 0 15 8 N 38 0 0,0
21.04.2018 02:00:00 15,6 6,1 12,6 13,6 15,3 7,7 13 7 16 9 E 40 0 0,0
21.04.2018 01:00:00 15,4 6,7 12,5 14,1 15,5 7,6 12 6 15 8 ENE 36 0 0,0
21.04.2018 00:00:00 15,8 7,0 13,0 14,7 15,7 7,6 9 5 13 7 ENE 37 0 0,0
20.04.2018 23:00:00 16,1 7,0 11,4 15,6 15,8 7,6 5 3 15 8 NNW 40 0 0,0
20.04.2018 22:00:00 14,8 6,6 13,1 16,6 15,9 7,6 10 6 16 9 E 38 0 0,0
20.04.2018 21:00:00 18,3 6,1 13,4 18,0 15,9 7,6 5 3 11 6 NW 62 0 0,0
20.04.2018 20:00:00 20,7 4,4 17,9 19,9 15,7 7,6 4 2 15 8 N 70 60 0,0
20.04.2018 19:00:00 22,4 4,1 22,9 22,1 15,4 7,6 10 6 19 11 NW 70 60 0,0
20.04.2018 18:00:00 24,2 4,4 26,0 23,3 15,0 7,5 9 5 19 10 W 55 60 0,0
20.04.2018 17:00:00 23,7 4,8 25,7 23,9 14,5 7,5 9 5 19 11 W 40 60 0,0

tt = Température de l'air
td = dewpoint
tt 5cm = Température de l'air 5cm
tt -5cm = Température de l'air -5cm
tt -20cm = Température de l'air -20cm
tt -100cm = Température de l'air -100cm
ff = Vitesse du vent
fx = gusts
dd = Direction du vent
vv = visibility
sd = Ensoleillement
rr = Quantités de précipitations

stations d'obs. à proximité